sensor_id;sensor_type;location;lat;lon;timestamp;P1;durP1;ratioP1;P2;durP2;ratioP2
19804;SDS011;10062;51.052;13.756;2022-12-18T00:02:10;49.33;;;20.83;;
19804;SDS011;10062;51.052;13.756;2022-12-18T00:04:42;43.87;;;20.47;;
19804;SDS011;10062;51.052;13.756;2022-12-18T00:07:14;48.27;;;18.93;;
19804;SDS011;10062;51.052;13.756;2022-12-18T00:09:46;47.37;;;19.53;;
19804;SDS011;10062;51.052;13.756;2022-12-18T00:12:17;47.50;;;21.37;;
19804;SDS011;10062;51.052;13.756;2022-12-18T00:14:49;46.37;;;18.67;;
19804;SDS011;10062;51.052;13.756;2022-12-18T00:17:22;47.53;;;19.07;;
19804;SDS011;10062;51.052;13.756;2022-12-18T00:19:54;41.13;;;17.73;;
19804;SDS011;10062;51.052;13.756;2022-12-18T00:22:26;51.23;;;18.87;;
19804;SDS011;10062;51.052;13.756;2022-12-18T00:24:58;44.33;;;19.03;;
19804;SDS011;10062;51.052;13.756;2022-12-18T00:27:30;39.70;;;17.53;;
19804;SDS011;10062;51.052;13.756;2022-12-18T00:30:01;46.60;;;19.43;;
19804;SDS011;10062;51.052;13.756;2022-12-18T00:32:35;42.47;;;17.00;;
19804;SDS011;10062;51.052;13.756;2022-12-18T00:35:08;45.40;;;18.53;;
19804;SDS011;10062;51.052;13.756;2022-12-18T00:37:40;43.30;;;18.33;;
19804;SDS011;10062;51.052;13.756;2022-12-18T00:40:11;40.03;;;17.97;;
19804;SDS011;10062;51.052;13.756;2022-12-18T00:42:43;41.90;;;19.73;;
19804;SDS011;10062;51.052;13.756;2022-12-18T00:45:27;45.03;;;21.67;;
19804;SDS011;10062;51.052;13.756;2022-12-18T00:48:01;48.90;;;19.43;;
19804;SDS011;10062;51.052;13.756;2022-12-18T00:50:33;45.33;;;18.30;;
19804;SDS011;10062;51.052;13.756;2022-12-18T00:53:05;44.87;;;18.87;;
19804;SDS011;10062;51.052;13.756;2022-12-18T00:55:40;44.97;;;17.57;;
19804;SDS011;10062;51.052;13.756;2022-12-18T00:58:12;42.77;;;17.17;;
19804;SDS011;10062;51.052;13.756;2022-12-18T01:00:45;40.87;;;17.47;;
19804;SDS011;10062;51.052;13.756;2022-12-18T01:03:18;44.80;;;15.90;;
19804;SDS011;10062;51.052;13.756;2022-12-18T01:05:50;37.63;;;16.87;;
19804;SDS011;10062;51.052;13.756;2022-12-18T01:08:22;50.23;;;18.97;;
19804;SDS011;10062;51.052;13.756;2022-12-18T01:10:54;42.30;;;18.80;;
19804;SDS011;10062;51.052;13.756;2022-12-18T01:13:26;47.60;;;17.13;;
19804;SDS011;10062;51.052;13.756;2022-12-18T01:15:58;38.70;;;16.17;;
19804;SDS011;10062;51.052;13.756;2022-12-18T01:18:31;34.90;;;14.93;;
19804;SDS011;10062;51.052;13.756;2022-12-18T01:21:05;33.23;;;15.17;;
19804;SDS011;10062;51.052;13.756;2022-12-18T01:23:40;36.60;;;17.13;;
19804;SDS011;10062;51.052;13.756;2022-12-18T01:26:13;28.40;;;13.03;;
19804;SDS011;10062;51.052;13.756;2022-12-18T01:28:47;27.47;;;6.23;;
19804;SDS011;10062;51.052;13.756;2022-12-18T01:31:19;25.93;;;11.03;;
19804;SDS011;10062;51.052;13.756;2022-12-18T01:33:54;40.33;;;14.90;;
19804;SDS011;10062;51.052;13.756;2022-12-18T01:36:27;28.07;;;12.77;;
19804;SDS011;10062;51.052;13.756;2022-12-18T01:39:01;36.27;;;14.20;;
19804;SDS011;10062;51.052;13.756;2022-12-18T01:41:34;35.00;;;13.80;;
19804;SDS011;10062;51.052;13.756;2022-12-18T01:47:30;33.83;;;13.67;;
19804;SDS011;10062;51.052;13.756;2022-12-18T01:50:08;35.37;;;17.13;;
19804;SDS011;10062;51.052;13.756;2022-12-18T01:52:42;21.40;;;9.30;;
19804;SDS011;10062;51.052;13.756;2022-12-18T01:55:18;27.33;;;11.40;;
19804;SDS011;10062;51.052;13.756;2022-12-18T01:57:54;31.37;;;12.30;;
19804;SDS011;10062;51.052;13.756;2022-12-18T02:00:28;24.10;;;10.80;;
19804;SDS011;10062;51.052;13.756;2022-12-18T02:03:01;24.97;;;11.90;;
19804;SDS011;10062;51.052;13.756;2022-12-18T02:05:36;22.47;;;10.33;;
19804;SDS011;10062;51.052;13.756;2022-12-18T02:08:16;25.60;;;12.40;;
19804;SDS011;10062;51.052;13.756;2022-12-18T02:10:54;30.77;;;13.20;;
19804;SDS011;10062;51.052;13.756;2022-12-18T02:13:37;35.40;;;13.20;;
19804;SDS011;10062;51.052;13.756;2022-12-18T02:16:18;29.23;;;12.20;;
19804;SDS011;10062;51.052;13.756;2022-12-18T02:18:56;32.33;;;12.17;;
19804;SDS011;10062;51.052;13.756;2022-12-18T02:21:33;21.13;;;10.10;;
19804;SDS011;10062;51.052;13.756;2022-12-18T02:24:18;25.40;;;10.03;;
19804;SDS011;10062;51.052;13.756;2022-12-18T02:27:03;31.47;;;11.47;;
19804;SDS011;10062;51.052;13.756;2022-12-18T02:29:38;24.07;;;9.60;;
19804;SDS011;10062;51.052;13.756;2022-12-18T02:32:13;21.83;;;10.40;;
19804;SDS011;10062;51.052;13.756;2022-12-18T02:34:47;22.13;;;9.43;;
19804;SDS011;10062;51.052;13.756;2022-12-18T02:37:22;25.77;;;11.13;;
19804;SDS011;10062;51.052;13.756;2022-12-18T02:39:57;22.67;;;9.87;;
19804;SDS011;10062;51.052;13.756;2022-12-18T02:42:32;23.10;;;10.60;;
19804;SDS011;10062;51.052;13.756;2022-12-18T02:45:06;25.07;;;11.53;;
19804;SDS011;10062;51.052;13.756;2022-12-18T02:47:40;30.37;;;13.47;;
19804;SDS011;10062;51.052;13.756;2022-12-18T02:50:18;25.47;;;10.30;;
19804;SDS011;10062;51.052;13.756;2022-12-18T02:53:01;26.60;;;12.30;;
19804;SDS011;10062;51.052;13.756;2022-12-18T02:55:44;28.17;;;11.27;;
19804;SDS011;10062;51.052;13.756;2022-12-18T02:58:26;22.30;;;7.90;;
19804;SDS011;10062;51.052;13.756;2022-12-18T03:01:11;20.03;;;9.47;;
19804;SDS011;10062;51.052;13.756;2022-12-18T03:03:49;26.23;;;10.00;;
19804;SDS011;10062;51.052;13.756;2022-12-18T03:06:28;24.50;;;10.30;;
19804;SDS011;10062;51.052;13.756;2022-12-18T03:09:06;27.37;;;10.20;;
19804;SDS011;10062;51.052;13.756;2022-12-18T03:11:41;21.37;;;9.63;;
19804;SDS011;10062;51.052;13.756;2022-12-18T03:14:36;32.03;;;10.43;;
19804;SDS011;10062;51.052;13.756;2022-12-18T03:17:13;22.20;;;10.13;;
19804;SDS011;10062;51.052;13.756;2022-12-18T03:19:48;20.37;;;8.20;;
19804;SDS011;10062;51.052;13.756;2022-12-18T03:22:22;26.13;;;9.40;;
19804;SDS011;10062;51.052;13.756;2022-12-18T03:24:58;24.90;;;10.27;;
19804;SDS011;10062;51.052;13.756;2022-12-18T03:27:33;22.70;;;9.30;;
19804;SDS011;10062;51.052;13.756;2022-12-18T03:30:13;18.27;;;7.93;;
19804;SDS011;10062;51.052;13.756;2022-12-18T03:32:48;18.40;;;7.27;;
19804;SDS011;10062;51.052;13.756;2022-12-18T03:35:28;20.53;;;9.37;;
19804;SDS011;10062;51.052;13.756;2022-12-18T03:38:02;21.53;;;8.30;;
19804;SDS011;10062;51.052;13.756;2022-12-18T03:40:41;20.73;;;8.47;;
19804;SDS011;10062;51.052;13.756;2022-12-18T03:43:20;23.00;;;9.67;;
19804;SDS011;10062;51.052;13.756;2022-12-18T03:46:06;25.07;;;9.23;;
19804;SDS011;10062;51.052;13.756;2022-12-18T03:48:44;19.90;;;9.77;;
19804;SDS011;10062;51.052;13.756;2022-12-18T03:51:23;16.63;;;7.33;;
19804;SDS011;10062;51.052;13.756;2022-12-18T03:54:00;23.40;;;8.07;;
19804;SDS011;10062;51.052;13.756;2022-12-18T03:56:40;18.03;;;7.33;;
19804;SDS011;10062;51.052;13.756;2022-12-18T03:59:16;15.30;;;7.47;;
19804;SDS011;10062;51.052;13.756;2022-12-18T04:01:52;22.73;;;7.97;;
19804;SDS011;10062;51.052;13.756;2022-12-18T04:04:27;17.63;;;7.77;;
19804;SDS011;10062;51.052;13.756;2022-12-18T04:07:03;17.20;;;6.20;;
19804;SDS011;10062;51.052;13.756;2022-12-18T04:09:38;4.47;;;3.33;;
19804;SDS011;10062;51.052;13.756;2022-12-18T04:12:12;20.30;;;9.07;;
19804;SDS011;10062;51.052;13.756;2022-12-18T04:14:44;17.07;;;7.50;;
19804;SDS011;10062;51.052;13.756;2022-12-18T04:17:18;15.13;;;7.00;;
19804;SDS011;10062;51.052;13.756;2022-12-18T04:19:50;13.97;;;5.73;;
19804;SDS011;10062;51.052;13.756;2022-12-18T04:22:22;20.63;;;6.97;;
19804;SDS011;10062;51.052;13.756;2022-12-18T04:24:59;14.50;;;6.60;;
19804;SDS011;10062;51.052;13.756;2022-12-18T04:27:38;19.23;;;8.80;;
19804;SDS011;10062;51.052;13.756;2022-12-18T04:30:11;16.93;;;7.00;;
19804;SDS011;10062;51.052;13.756;2022-12-18T04:32:45;15.23;;;6.90;;
19804;SDS011;10062;51.052;13.756;2022-12-18T04:35:17;17.13;;;6.20;;
19804;SDS011;10062;51.052;13.756;2022-12-18T04:37:49;19.40;;;6.83;;
19804;SDS011;10062;51.052;13.756;2022-12-18T04:40:21;18.77;;;6.50;;
19804;SDS011;10062;51.052;13.756;2022-12-18T04:42:53;17.97;;;6.60;;
19804;SDS011;10062;51.052;13.756;2022-12-18T04:45:25;18.50;;;6.80;;
19804;SDS011;10062;51.052;13.756;2022-12-18T04:47:58;19.20;;;6.77;;
19804;SDS011;10062;51.052;13.756;2022-12-18T04:50:30;25.07;;;8.03;;
19804;SDS011;10062;51.052;13.756;2022-12-18T04:53:02;18.07;;;7.40;;
19804;SDS011;10062;51.052;13.756;2022-12-18T04:55:34;16.63;;;7.20;;
19804;SDS011;10062;51.052;13.756;2022-12-18T04:58:06;15.40;;;5.77;;
19804;SDS011;10062;51.052;13.756;2022-12-18T05:00:38;18.23;;;6.77;;
19804;SDS011;10062;51.052;13.756;2022-12-18T05:03:11;24.73;;;8.37;;
19804;SDS011;10062;51.052;13.756;2022-12-18T05:05:43;19.17;;;8.17;;
19804;SDS011;10062;51.052;13.756;2022-12-18T05:08:14;15.40;;;6.57;;
19804;SDS011;10062;51.052;13.756;2022-12-18T05:10:46;16.23;;;7.03;;
19804;SDS011;10062;51.052;13.756;2022-12-18T05:13:18;16.43;;;7.50;;
19804;SDS011;10062;51.052;13.756;2022-12-18T05:15:50;15.53;;;7.10;;
19804;SDS011;10062;51.052;13.756;2022-12-18T05:18:24;19.73;;;8.50;;
19804;SDS011;10062;51.052;13.756;2022-12-18T05:20:56;18.87;;;7.27;;
19804;SDS011;10062;51.052;13.756;2022-12-18T05:23:28;17.27;;;7.17;;
19804;SDS011;10062;51.052;13.756;2022-12-18T05:26:01;19.33;;;7.70;;
19804;SDS011;10062;51.052;13.756;2022-12-18T05:28:35;16.47;;;7.23;;
19804;SDS011;10062;51.052;13.756;2022-12-18T05:31:07;25.77;;;8.63;;
19804;SDS011;10062;51.052;13.756;2022-12-18T05:33:40;17.67;;;7.60;;
19804;SDS011;10062;51.052;13.756;2022-12-18T05:36:12;20.10;;;7.00;;
19804;SDS011;10062;51.052;13.756;2022-12-18T05:38:43;13.03;;;6.60;;
19804;SDS011;10062;51.052;13.756;2022-12-18T05:41:15;15.40;;;6.97;;
19804;SDS011;10062;51.052;13.756;2022-12-18T05:43:47;17.23;;;8.03;;
19804;SDS011;10062;51.052;13.756;2022-12-18T05:46:19;13.77;;;5.63;;
19804;SDS011;10062;51.052;13.756;2022-12-18T05:48:52;16.00;;;6.50;;
19804;SDS011;10062;51.052;13.756;2022-12-18T05:51:23;12.33;;;6.17;;
19804;SDS011;10062;51.052;13.756;2022-12-18T05:53:55;19.57;;;7.03;;
19804;SDS011;10062;51.052;13.756;2022-12-18T05:56:27;14.10;;;6.23;;
19804;SDS011;10062;51.052;13.756;2022-12-18T05:58:59;16.40;;;4.70;;
19804;SDS011;10062;51.052;13.756;2022-12-18T06:01:31;16.17;;;6.73;;
19804;SDS011;10062;51.052;13.756;2022-12-18T06:04:04;18.10;;;7.60;;
19804;SDS011;10062;51.052;13.756;2022-12-18T06:06:36;17.63;;;7.07;;
19804;SDS011;10062;51.052;13.756;2022-12-18T06:09:08;14.27;;;5.57;;
19804;SDS011;10062;51.052;13.756;2022-12-18T06:11:39;14.37;;;6.80;;
19804;SDS011;10062;51.052;13.756;2022-12-18T06:14:11;16.43;;;7.67;;
19804;SDS011;10062;51.052;13.756;2022-12-18T06:16:43;15.87;;;6.40;;
19804;SDS011;10062;51.052;13.756;2022-12-18T06:19:16;14.10;;;5.90;;
19804;SDS011;10062;51.052;13.756;2022-12-18T06:21:48;17.13;;;6.20;;
19804;SDS011;10062;51.052;13.756;2022-12-18T06:24:20;17.40;;;6.73;;
19804;SDS011;10062;51.052;13.756;2022-12-18T06:26:52;18.53;;;6.87;;
19804;SDS011;10062;51.052;13.756;2022-12-18T06:29:24;17.60;;;6.97;;
19804;SDS011;10062;51.052;13.756;2022-12-18T06:31:55;16.10;;;6.20;;
19804;SDS011;10062;51.052;13.756;2022-12-18T06:34:31;17.37;;;7.80;;
19804;SDS011;10062;51.052;13.756;2022-12-18T06:37:03;20.83;;;7.03;;
19804;SDS011;10062;51.052;13.756;2022-12-18T06:39:35;17.43;;;7.30;;
19804;SDS011;10062;51.052;13.756;2022-12-18T06:42:06;19.03;;;7.90;;
19804;SDS011;10062;51.052;13.756;2022-12-18T06:44:38;16.67;;;7.27;;
19804;SDS011;10062;51.052;13.756;2022-12-18T06:47:10;20.07;;;7.10;;
19804;SDS011;10062;51.052;13.756;2022-12-18T06:49:43;17.93;;;6.57;;
19804;SDS011;10062;51.052;13.756;2022-12-18T06:52:15;15.77;;;6.43;;
19804;SDS011;10062;51.052;13.756;2022-12-18T06:54:47;14.77;;;6.47;;
19804;SDS011;10062;51.052;13.756;2022-12-18T06:57:19;15.73;;;7.03;;
19804;SDS011;10062;51.052;13.756;2022-12-18T06:59:51;15.90;;;6.00;;
19804;SDS011;10062;51.052;13.756;2022-12-18T07:02:22;17.70;;;7.50;;
19804;SDS011;10062;51.052;13.756;2022-12-18T07:04:56;19.77;;;7.87;;
19804;SDS011;10062;51.052;13.756;2022-12-18T07:07:27;22.00;;;7.93;;
19804;SDS011;10062;51.052;13.756;2022-12-18T07:09:59;14.00;;;6.20;;
19804;SDS011;10062;51.052;13.756;2022-12-18T07:12:31;17.10;;;7.07;;
19804;SDS011;10062;51.052;13.756;2022-12-18T07:15:03;19.83;;;8.13;;
19804;SDS011;10062;51.052;13.756;2022-12-18T07:17:36;19.07;;;6.40;;
19804;SDS011;10062;51.052;13.756;2022-12-18T07:20:09;15.00;;;5.97;;
19804;SDS011;10062;51.052;13.756;2022-12-18T07:22:41;15.53;;;5.80;;
19804;SDS011;10062;51.052;13.756;2022-12-18T07:25:13;13.87;;;5.43;;
19804;SDS011;10062;51.052;13.756;2022-12-18T07:27:45;17.57;;;7.23;;
19804;SDS011;10062;51.052;13.756;2022-12-18T07:30:17;15.43;;;6.83;;
19804;SDS011;10062;51.052;13.756;2022-12-18T07:32:49;42.97;;;16.93;;
19804;SDS011;10062;51.052;13.756;2022-12-18T07:35:22;23.87;;;12.33;;
19804;SDS011;10062;51.052;13.756;2022-12-18T07:37:54;27.27;;;11.77;;
19804;SDS011;10062;51.052;13.756;2022-12-18T07:40:25;40.67;;;18.40;;
19804;SDS011;10062;51.052;13.756;2022-12-18T07:42:57;56.17;;;23.60;;
19804;SDS011;10062;51.052;13.756;2022-12-18T07:45:29;25.87;;;10.73;;
19804;SDS011;10062;51.052;13.756;2022-12-18T07:48:01;18.77;;;7.17;;
19804;SDS011;10062;51.052;13.756;2022-12-18T07:50:34;15.93;;;6.43;;
19804;SDS011;10062;51.052;13.756;2022-12-18T07:53:06;19.00;;;7.23;;
19804;SDS011;10062;51.052;13.756;2022-12-18T07:55:38;12.87;;;5.93;;
19804;SDS011;10062;51.052;13.756;2022-12-18T07:58:09;17.93;;;7.37;;
19804;SDS011;10062;51.052;13.756;2022-12-18T08:00:41;18.40;;;7.97;;
19804;SDS011;10062;51.052;13.756;2022-12-18T08:03:13;23.30;;;9.33;;
19804;SDS011;10062;51.052;13.756;2022-12-18T08:05:46;27.57;;;13.20;;
19804;SDS011;10062;51.052;13.756;2022-12-18T08:08:18;20.17;;;9.47;;
19804;SDS011;10062;51.052;13.756;2022-12-18T08:10:50;19.33;;;5.67;;
19804;SDS011;10062;51.052;13.756;2022-12-18T08:13:22;17.57;;;7.00;;
19804;SDS011;10062;51.052;13.756;2022-12-18T08:15:57;16.13;;;7.70;;
19804;SDS011;10062;51.052;13.756;2022-12-18T08:18:29;22.83;;;7.73;;
19804;SDS011;10062;51.052;13.756;2022-12-18T08:21:09;16.77;;;8.47;;
19804;SDS011;10062;51.052;13.756;2022-12-18T08:23:42;13.20;;;5.20;;
19804;SDS011;10062;51.052;13.756;2022-12-18T08:26:13;15.73;;;8.60;;
19804;SDS011;10062;51.052;13.756;2022-12-18T08:28:45;19.73;;;9.00;;
19804;SDS011;10062;51.052;13.756;2022-12-18T08:31:17;19.57;;;8.53;;
19804;SDS011;10062;51.052;13.756;2022-12-18T08:33:50;20.60;;;9.80;;
19804;SDS011;10062;51.052;13.756;2022-12-18T08:36:24;27.73;;;10.97;;
19804;SDS011;10062;51.052;13.756;2022-12-18T08:38:56;28.77;;;10.97;;
19804;SDS011;10062;51.052;13.756;2022-12-18T08:41:28;25.33;;;10.33;;
19804;SDS011;10062;51.052;13.756;2022-12-18T08:44:00;20.53;;;9.70;;
19804;SDS011;10062;51.052;13.756;2022-12-18T08:46:49;24.30;;;11.40;;
19804;SDS011;10062;51.052;13.756;2022-12-18T08:49:21;23.07;;;10.07;;
19804;SDS011;10062;51.052;13.756;2022-12-18T08:51:55;21.73;;;9.63;;
19804;SDS011;10062;51.052;13.756;2022-12-18T08:54:27;27.00;;;11.60;;
19804;SDS011;10062;51.052;13.756;2022-12-18T08:56:59;29.97;;;13.20;;
19804;SDS011;10062;51.052;13.756;2022-12-18T08:59:31;36.07;;;15.17;;
19804;SDS011;10062;51.052;13.756;2022-12-18T09:02:03;31.50;;;14.10;;
19804;SDS011;10062;51.052;13.756;2022-12-18T09:04:34;28.33;;;12.77;;
19804;SDS011;10062;51.052;13.756;2022-12-18T09:07:07;30.70;;;13.73;;
19804;SDS011;10062;51.052;13.756;2022-12-18T09:09:39;30.07;;;12.93;;
19804;SDS011;10062;51.052;13.756;2022-12-18T09:12:11;12.73;;;5.83;;
19804;SDS011;10062;51.052;13.756;2022-12-18T09:14:43;30.83;;;12.87;;
19804;SDS011;10062;51.052;13.756;2022-12-18T09:17:15;39.33;;;13.20;;
19804;SDS011;10062;51.052;13.756;2022-12-18T09:19:46;39.27;;;17.23;;
19804;SDS011;10062;51.052;13.756;2022-12-18T09:22:20;40.77;;;17.87;;
19804;SDS011;10062;51.052;13.756;2022-12-18T09:24:51;34.70;;;15.73;;
19804;SDS011;10062;51.052;13.756;2022-12-18T09:27:24;34.83;;;15.17;;
19804;SDS011;10062;51.052;13.756;2022-12-18T09:29:55;36.13;;;15.07;;
19804;SDS011;10062;51.052;13.756;2022-12-18T09:32:27;36.80;;;16.23;;
19804;SDS011;10062;51.052;13.756;2022-12-18T09:34:59;48.93;;;21.13;;
19804;SDS011;10062;51.052;13.756;2022-12-18T09:37:33;41.60;;;18.00;;
19804;SDS011;10062;51.052;13.756;2022-12-18T09:40:05;43.13;;;21.07;;
19804;SDS011;10062;51.052;13.756;2022-12-18T09:42:37;37.23;;;17.73;;
19804;SDS011;10062;51.052;13.756;2022-12-18T09:45:11;42.33;;;18.27;;
19804;SDS011;10062;51.052;13.756;2022-12-18T09:47:45;37.23;;;19.30;;
19804;SDS011;10062;51.052;13.756;2022-12-18T09:50:22;32.87;;;14.30;;
19804;SDS011;10062;51.052;13.756;2022-12-18T09:53:02;46.90;;;20.87;;
19804;SDS011;10062;51.052;13.756;2022-12-18T09:55:41;30.90;;;15.20;;
19804;SDS011;10062;51.052;13.756;2022-12-18T09:58:17;27.23;;;11.27;;
19804;SDS011;10062;51.052;13.756;2022-12-18T10:00:51;33.47;;;16.27;;
19804;SDS011;10062;51.052;13.756;2022-12-18T10:03:23;27.53;;;10.40;;
19804;SDS011;10062;51.052;13.756;2022-12-18T10:05:58;34.10;;;13.60;;
19804;SDS011;10062;51.052;13.756;2022-12-18T10:08:39;37.33;;;16.40;;
19804;SDS011;10062;51.052;13.756;2022-12-18T10:11:21;27.73;;;11.50;;
19804;SDS011;10062;51.052;13.756;2022-12-18T10:14:13;25.13;;;11.10;;
19804;SDS011;10062;51.052;13.756;2022-12-18T10:16:54;35.10;;;16.67;;
19804;SDS011;10062;51.052;13.756;2022-12-18T10:19:36;30.43;;;13.37;;
19804;SDS011;10062;51.052;13.756;2022-12-18T10:22:15;30.03;;;14.07;;
19804;SDS011;10062;51.052;13.756;2022-12-18T10:24:57;20.90;;;8.83;;
19804;SDS011;10062;51.052;13.756;2022-12-18T10:27:34;19.80;;;8.10;;
19804;SDS011;10062;51.052;13.756;2022-12-18T10:30:08;27.70;;;11.03;;
19804;SDS011;10062;51.052;13.756;2022-12-18T10:32:44;30.83;;;13.50;;
19804;SDS011;10062;51.052;13.756;2022-12-18T10:35:17;34.33;;;13.97;;
19804;SDS011;10062;51.052;13.756;2022-12-18T10:38:07;21.57;;;9.07;;
19804;SDS011;10062;51.052;13.756;2022-12-18T10:40:55;29.00;;;13.43;;
19804;SDS011;10062;51.052;13.756;2022-12-18T10:43:29;30.27;;;12.10;;
19804;SDS011;10062;51.052;13.756;2022-12-18T10:46:04;31.57;;;13.50;;
19804;SDS011;10062;51.052;13.756;2022-12-18T10:48:49;34.73;;;12.77;;
19804;SDS011;10062;51.052;13.756;2022-12-18T10:51:25;27.00;;;12.63;;
19804;SDS011;10062;51.052;13.756;2022-12-18T10:53:59;29.33;;;13.43;;
19804;SDS011;10062;51.052;13.756;2022-12-18T10:56:34;40.43;;;17.83;;
19804;SDS011;10062;51.052;13.756;2022-12-18T10:59:08;33.87;;;15.53;;
19804;SDS011;10062;51.052;13.756;2022-12-18T11:01:45;34.60;;;14.63;;
19804;SDS011;10062;51.052;13.756;2022-12-18T11:04:20;22.90;;;10.47;;
19804;SDS011;10062;51.052;13.756;2022-12-18T11:06:54;33.50;;;13.63;;
19804;SDS011;10062;51.052;13.756;2022-12-18T11:09:28;29.23;;;13.77;;
19804;SDS011;10062;51.052;13.756;2022-12-18T11:12:04;29.67;;;13.93;;
19804;SDS011;10062;51.052;13.756;2022-12-18T11:14:49;30.87;;;15.47;;
19804;SDS011;10062;51.052;13.756;2022-12-18T11:17:25;15.83;;;6.93;;
19804;SDS011;10062;51.052;13.756;2022-12-18T11:20:01;24.27;;;10.97;;
19804;SDS011;10062;51.052;13.756;2022-12-18T11:22:35;16.40;;;8.00;;
19804;SDS011;10062;51.052;13.756;2022-12-18T11:25:16;26.73;;;10.87;;
19804;SDS011;10062;51.052;13.756;2022-12-18T11:27:52;25.47;;;10.80;;
19804;SDS011;10062;51.052;13.756;2022-12-18T11:30:26;19.77;;;7.80;;
19804;SDS011;10062;51.052;13.756;2022-12-18T11:33:00;21.10;;;8.37;;
19804;SDS011;10062;51.052;13.756;2022-12-18T11:35:46;17.47;;;6.47;;
19804;SDS011;10062;51.052;13.756;2022-12-18T11:38:22;32.03;;;13.80;;
19804;SDS011;10062;51.052;13.756;2022-12-18T11:40:56;25.07;;;13.37;;
19804;SDS011;10062;51.052;13.756;2022-12-18T11:43:34;33.03;;;15.83;;
19804;SDS011;10062;51.052;13.756;2022-12-18T11:46:10;18.37;;;9.67;;
19804;SDS011;10062;51.052;13.756;2022-12-18T11:48:45;36.37;;;16.90;;
19804;SDS011;10062;51.052;13.756;2022-12-18T11:51:23;21.60;;;9.73;;
19804;SDS011;10062;51.052;13.756;2022-12-18T11:53:59;29.73;;;13.27;;
19804;SDS011;10062;51.052;13.756;2022-12-18T11:56:32;27.70;;;12.10;;
19804;SDS011;10062;51.052;13.756;2022-12-18T11:59:09;29.23;;;13.23;;
19804;SDS011;10062;51.052;13.756;2022-12-18T12:01:50;26.03;;;12.73;;
19804;SDS011;10062;51.052;13.756;2022-12-18T12:04:28;27.03;;;11.43;;
19804;SDS011;10062;51.052;13.756;2022-12-18T12:07:17;26.03;;;10.97;;
19804;SDS011;10062;51.052;13.756;2022-12-18T12:10:00;29.77;;;12.97;;
19804;SDS011;10062;51.052;13.756;2022-12-18T12:12:44;31.80;;;14.90;;
19804;SDS011;10062;51.052;13.756;2022-12-18T12:15:30;23.70;;;11.87;;
19804;SDS011;10062;51.052;13.756;2022-12-18T12:18:13;30.10;;;13.10;;
19804;SDS011;10062;51.052;13.756;2022-12-18T12:20:54;30.77;;;12.43;;
19804;SDS011;10062;51.052;13.756;2022-12-18T12:23:35;31.00;;;13.83;;
19804;SDS011;10062;51.052;13.756;2022-12-18T12:26:15;25.97;;;11.70;;
19804;SDS011;10062;51.052;13.756;2022-12-18T12:28:58;31.13;;;12.70;;
19804;SDS011;10062;51.052;13.756;2022-12-18T12:31:44;30.00;;;12.83;;
19804;SDS011;10062;51.052;13.756;2022-12-18T12:34:26;32.30;;;13.50;;
19804;SDS011;10062;51.052;13.756;2022-12-18T12:37:07;25.70;;;11.67;;
19804;SDS011;10062;51.052;13.756;2022-12-18T12:39:47;32.27;;;14.83;;
19804;SDS011;10062;51.052;13.756;2022-12-18T12:42:29;23.37;;;11.77;;
19804;SDS011;10062;51.052;13.756;2022-12-18T12:45:22;24.97;;;9.17;;
19804;SDS011;10062;51.052;13.756;2022-12-18T12:48:00;29.20;;;12.50;;
19804;SDS011;10062;51.052;13.756;2022-12-18T12:50:35;29.50;;;12.33;;
19804;SDS011;10062;51.052;13.756;2022-12-18T12:53:08;29.97;;;12.73;;
19804;SDS011;10062;51.052;13.756;2022-12-18T12:55:44;26.73;;;11.37;;
19804;SDS011;10062;51.052;13.756;2022-12-18T12:58:17;29.27;;;13.37;;
19804;SDS011;10062;51.052;13.756;2022-12-18T13:01:01;16.00;;;6.50;;
19804;SDS011;10062;51.052;13.756;2022-12-18T13:03:43;29.23;;;10.63;;
19804;SDS011;10062;51.052;13.756;2022-12-18T13:06:23;24.77;;;10.70;;
19804;SDS011;10062;51.052;13.756;2022-12-18T13:09:04;24.60;;;11.03;;
19804;SDS011;10062;51.052;13.756;2022-12-18T13:11:36;26.70;;;12.00;;
19804;SDS011;10062;51.052;13.756;2022-12-18T13:14:28;30.70;;;12.50;;
19804;SDS011;10062;51.052;13.756;2022-12-18T13:17:23;31.97;;;13.73;;
19804;SDS011;10062;51.052;13.756;2022-12-18T13:20:05;24.63;;;10.57;;
19804;SDS011;10062;51.052;13.756;2022-12-18T13:22:40;13.80;;;5.70;;
19804;SDS011;10062;51.052;13.756;2022-12-18T13:25:28;22.43;;;8.27;;
19804;SDS011;10062;51.052;13.756;2022-12-18T13:28:09;26.80;;;10.33;;
19804;SDS011;10062;51.052;13.756;2022-12-18T13:33:39;21.17;;;8.77;;
19804;SDS011;10062;51.052;13.756;2022-12-18T13:36:23;32.30;;;14.33;;
19804;SDS011;10062;51.052;13.756;2022-12-18T13:41:54;26.77;;;11.03;;
19804;SDS011;10062;51.052;13.756;2022-12-18T13:45:41;26.77;;;10.63;;
19804;SDS011;10062;51.052;13.756;2022-12-18T13:48:22;39.83;;;14.03;;
19804;SDS011;10062;51.052;13.756;2022-12-18T13:51:01;27.83;;;11.97;;
19804;SDS011;10062;51.052;13.756;2022-12-18T13:53:37;36.13;;;14.40;;
19804;SDS011;10062;51.052;13.756;2022-12-18T13:56:15;27.87;;;13.20;;
19804;SDS011;10062;51.052;13.756;2022-12-18T13:59:03;28.93;;;11.77;;
19804;SDS011;10062;51.052;13.756;2022-12-18T14:01:43;28.73;;;10.73;;
19804;SDS011;10062;51.052;13.756;2022-12-18T14:04:18;22.53;;;11.03;;
19804;SDS011;10062;51.052;13.756;2022-12-18T14:06:53;21.13;;;8.97;;
19804;SDS011;10062;51.052;13.756;2022-12-18T14:09:31;13.90;;;7.03;;
19804;SDS011;10062;51.052;13.756;2022-12-18T14:12:11;13.83;;;5.97;;
19804;SDS011;10062;51.052;13.756;2022-12-18T14:15:05;24.37;;;13.10;;
19804;SDS011;10062;51.052;13.756;2022-12-18T14:17:46;14.47;;;6.97;;
19804;SDS011;10062;51.052;13.756;2022-12-18T14:20:18;17.80;;;8.73;;
19804;SDS011;10062;51.052;13.756;2022-12-18T14:22:50;11.20;;;4.43;;
19804;SDS011;10062;51.052;13.756;2022-12-18T14:25:24;19.93;;;7.40;;
19804;SDS011;10062;51.052;13.756;2022-12-18T14:28:02;20.20;;;8.03;;
19804;SDS011;10062;51.052;13.756;2022-12-18T14:30:40;21.73;;;9.33;;
19804;SDS011;10062;51.052;13.756;2022-12-18T14:33:14;20.73;;;8.90;;
19804;SDS011;10062;51.052;13.756;2022-12-18T14:35:53;26.10;;;12.70;;
19804;SDS011;10062;51.052;13.756;2022-12-18T14:38:27;20.80;;;7.40;;
19804;SDS011;10062;51.052;13.756;2022-12-18T14:41:02;27.53;;;11.80;;
19804;SDS011;10062;51.052;13.756;2022-12-18T14:43:36;29.43;;;14.80;;
19804;SDS011;10062;51.052;13.756;2022-12-18T14:49:00;12.17;;;5.03;;
19804;SDS011;10062;51.052;13.756;2022-12-18T14:51:34;22.53;;;10.67;;
19804;SDS011;10062;51.052;13.756;2022-12-18T14:54:14;22.87;;;9.87;;
19804;SDS011;10062;51.052;13.756;2022-12-18T14:56:49;25.33;;;10.53;;
19804;SDS011;10062;51.052;13.756;2022-12-18T14:59:27;13.80;;;5.80;;
19804;SDS011;10062;51.052;13.756;2022-12-18T15:02:01;24.23;;;9.77;;
19804;SDS011;10062;51.052;13.756;2022-12-18T15:04:36;19.63;;;9.17;;
19804;SDS011;10062;51.052;13.756;2022-12-18T15:07:12;27.23;;;9.73;;
19804;SDS011;10062;51.052;13.756;2022-12-18T15:10:00;17.00;;;8.07;;
19804;SDS011;10062;51.052;13.756;2022-12-18T15:12:37;27.53;;;11.47;;
19804;SDS011;10062;51.052;13.756;2022-12-18T15:18:21;24.80;;;10.27;;